Time;durP1;ratioP1;P1;durP2;ratioP2;P2;SDS_P1;SDS_P2;PMS_P1;PMS_P2;Temp;Humidity;BMP_temperature;BMP_pressure;BME280_temperature;BME280_humidity;BME280_pressure;Samples;Min_cycle;Max_cycle;Signal;HPM_P1;HPM_P2
2023/02/17 00:02:19;;;;;;;5.35;1.38;;;;;;;11.30;100.00;100529.78;4937956;28;20035;-82
2023/02/17 00:04:45;;;;;;;2.08;0.70;;;;;;;11.32;100.00;100524.31;4946591;28;20036;-82
2023/02/17 00:07:11;;;;;;;4.80;0.85;;;;;;;11.32;100.00;100538.41;4940526;28;20035;-82
2023/02/17 00:09:36;;;;;;;7.28;0.77;;;;;;;11.31;100.00;100527.97;4932792;28;20093;-81
2023/02/17 00:12:02;;;;;;;6.15;0.70;;;;;;;11.31;100.00;100523.47;4944982;28;20384;-82
2023/02/17 00:14:28;;;;;;;3.20;0.60;;;;;;;11.32;100.00;100525.16;4941391;28;20432;-81
2023/02/17 00:16:54;;;;;;;3.20;0.63;;;;;;;11.31;100.00;100518.19;4930242;29;20070;-82
2023/02/17 00:19:22;;;;;;;2.78;0.55;;;;;;;11.33;100.00;100525.97;4946728;28;20039;-82
2023/02/17 00:21:54;;;;;;;4.00;0.57;;;;;;;11.32;100.00;100511.94;4949939;28;20039;-81
2023/02/17 00:24:20;;;;;;;4.00;1.33;;;;;;;11.33;100.00;100507.47;4912788;28;20494;-82
2023/02/17 00:26:46;;;;;;;3.30;0.60;;;;;;;11.33;100.00;100507.47;4944342;28;20032;-82
2023/02/17 00:29:12;;;;;;;4.35;0.70;;;;;;;11.36;100.00;100512.47;4939305;28;20046;-81
2023/02/17 00:31:38;;;;;;;3.38;0.50;;;;;;;11.35;100.00;100503.69;4929357;28;20373;-82
2023/02/17 00:34:04;;;;;;;2.13;0.73;;;;;;;11.35;100.00;100508.16;4947717;28;20036;-82
2023/02/17 00:36:30;;;;;;;3.45;0.60;;;;;;;11.35;100.00;100513.44;4934336;29;20496;-82
2023/02/17 00:38:56;;;;;;;2.58;0.40;;;;;;;11.36;100.00;100496.56;4932843;28;20050;-82
2023/02/17 00:41:23;;;;;;;3.15;0.98;;;;;;;11.37;100.00;100509.66;4950873;28;20035;-82
2023/02/17 00:43:49;;;;;;;2.53;0.50;;;;;;;11.35;100.00;100509.00;4958352;28;20395;-82
2023/02/17 00:46:17;;;;;;;2.00;0.30;;;;;;;11.39;100.00;100504.22;4944885;28;20035;-82
2023/02/17 00:48:44;;;;;;;3.95;0.47;;;;;;;11.37;100.00;100516.78;4913710;29;20040;-82
2023/02/17 00:51:11;;;;;;;1.35;0.43;;;;;;;11.40;100.00;100508.56;4943696;28;20030;-81
2023/02/17 00:53:37;;;;;;;1.95;0.30;;;;;;;11.43;100.00;100507.41;4924363;29;20058;-82
2023/02/17 00:56:04;;;;;;;1.77;0.38;;;;;;;11.46;100.00;100507.13;4937931;28;20477;-82
2023/02/17 00:58:30;;;;;;;1.17;0.30;;;;;;;11.44;100.00;100498.47;4921690;28;20048;-81
2023/02/17 01:00:56;;;;;;;1.00;0.30;;;;;;;11.46;100.00;100494.72;4925646;28;20032;-81
2023/02/17 01:03:23;;;;;;;3.45;0.22;;;;;;;11.49;100.00;100501.53;4957671;28;20506;-81
2023/02/17 01:05:50;;;;;;;1.20;0.25;;;;;;;11.50;100.00;100489.94;4929398;29;20681;-81
2023/02/17 01:08:17;;;;;;;0.30;0.10;;;;;;;11.50;100.00;100493.44;4957362;28;20031;-81
2023/02/17 01:10:46;;;;;;;1.25;0.47;;;;;;;11.52;100.00;100480.88;4951091;28;20488;-81
2023/02/17 01:13:13;;;;;;;4.38;0.45;;;;;;;11.52;100.00;100493.28;4949760;28;20543;-80
2023/02/17 01:15:47;;;;;;;1.67;0.20;;;;;;;11.51;100.00;100497.75;4947883;29;20063;-81
2023/02/17 01:18:15;;;;;;;2.53;0.28;;;;;;;11.49;100.00;100491.78;4930318;28;20039;-81
2023/02/17 01:20:41;;;;;;;1.92;0.20;;;;;;;11.48;100.00;100486.63;4954462;28;20500;-81
2023/02/17 01:23:09;;;;;;;1.40;0.30;;;;;;;11.48;100.00;100476.84;4941471;28;20049;-81
2023/02/17 01:25:39;;;;;;;1.98;0.20;;;;;;;11.49;100.00;100467.13;4941213;28;20028;-81
2023/02/17 01:28:06;;;;;;;0.82;0.20;;;;;;;11.45;100.00;100460.47;4952863;28;20085;-81
2023/02/17 01:30:32;;;;;;;1.95;0.63;;;;;;;11.43;100.00;100460.63;4953365;28;20066;-81
2023/02/17 01:32:58;;;;;;;1.75;0.50;;;;;;;11.43;100.00;100471.19;4942561;28;20067;-81
2023/02/17 01:35:24;;;;;;;3.80;0.30;;;;;;;11.42;100.00;100458.94;4924209;28;20480;-81
2023/02/17 01:37:49;;;;;;;1.25;0.20;;;;;;;11.40;100.00;100458.28;4952270;28;20045;-81
2023/02/17 01:40:16;;;;;;;2.00;0.20;;;;;;;11.40;100.00;100463.56;4950231;28;20040;-81
2023/02/17 01:42:42;;;;;;;1.75;0.63;;;;;;;11.36;100.00;100460.38;4946604;28;20035;-80
2023/02/17 01:45:17;;;;;;;0.82;0.10;;;;;;;11.39;100.00;100448.66;4955758;28;20032;-81
2023/02/17 01:48:02;;;;;;;0.60;0.10;;;;;;;11.37;100.00;100446.16;4893016;28;20031;-81
2023/02/17 01:50:38;;;;;;;0.30;0.05;;;;;;;11.35;100.00;100444.66;4953164;28;20090;-81
2023/02/17 01:53:08;;;;;;;0.38;0.13;;;;;;;11.35;100.00;100448.13;4946310;28;20452;-81
2023/02/17 01:55:36;;;;;;;1.52;0.10;;;;;;;11.33;100.00;100436.00;4938740;29;20055;-81
2023/02/17 01:58:06;;;;;;;1.20;0.10;;;;;;;11.33;100.00;100436.00;4942644;28;20118;-81
2023/02/17 02:00:34;;;;;;;0.03;0.00;;;;;;;11.32;100.00;100437.00;4940450;28;20046;-81
2023/02/17 02:03:03;;;;;;;0.00;0.00;;;;;;;11.30;100.00;100431.88;4962193;28;20039;-81
2023/02/17 02:05:29;;;;;;;2.55;0.10;;;;;;;11.31;100.00;100433.50;4938739;29;20031;-82
2023/02/17 02:07:56;;;;;;;0.90;0.10;;;;;;;11.33;100.00;100436.00;4936660;29;20042;-81
2023/02/17 02:10:21;;;;;;;0.05;0.00;;;;;;;11.32;100.00;100442.28;4932031;29;20123;-81
2023/02/17 02:12:47;;;;;;;0.73;0.10;;;;;;;11.32;100.00;100442.28;4932880;29;20049;-81
2023/02/17 02:15:20;;;;;;;0.15;0.00;;;;;;;11.35;100.00;100442.00;4950112;28;20039;-81
2023/02/17 02:17:58;;;;;;;1.38;0.10;;;;;;;11.36;100.00;100425.13;4933464;28;20054;-77
2023/02/17 02:20:32;;;;;;;1.02;0.03;;;;;;;11.33;100.00;100409.56;4937411;28;20480;-81
2023/02/17 02:23:34;;;;;;;0.95;0.10;;;;;;;11.29;100.00;100417.78;4951476;28;20050;-82
2023/02/17 02:26:25;;;;;;;0.60;0.05;;;;;;;11.30;100.00;100413.34;4874388;29;20123;-81
2023/02/17 02:29:30;;;;;;;0.52;0.08;;;;;;;11.30;100.00;100394.81;4930449;28;20057;-81
2023/02/17 02:32:19;;;;;;;0.32;0.00;;;;;;;11.26;100.00;100401.41;4939939;28;20065;-80
2023/02/17 02:34:53;;;;;;;0.40;0.00;;;;;;;11.29;100.00;100399.28;4961544;28;20038;-82
2023/02/17 02:37:41;;;;;;;0.00;0.00;;;;;;;11.28;100.00;100397.63;4949570;28;20035;-81
2023/02/17 02:40:10;;;;;;;0.22;0.00;;;;;;;11.25;100.00;100403.22;4933054;28;20074;-81
2023/02/17 02:42:39;;;;;;;1.45;0.10;;;;;;;11.24;100.00;100398.91;4916845;28;20043;-81
2023/02/17 02:45:09;;;;;;;0.55;0.10;;;;;;;11.27;100.00;100389.81;4952302;28;20130;-81
2023/02/17 02:47:55;;;;;;;0.00;0.00;;;;;;;11.28;100.00;100391.47;4946938;28;20066;-81
2023/02/17 02:51:14;;;;;;;1.02;0.20;;;;;;;11.28;100.00;100375.59;4930926;28;20070;-80
2023/02/17 02:54:14;;;;;;;0.15;0.00;;;;;;;11.24;100.00;100368.97;4873947;29;20129;-81
2023/02/17 02:56:46;;;;;;;0.08;0.00;;;;;;;11.26;100.00;100377.59;4825687;29;20060;-81
2023/02/17 02:59:33;;;;;;;0.32;0.10;;;;;;;11.26;100.00;100359.06;4921708;28;20464;-81
2023/02/17 03:02:16;;;;;;;0.47;0.10;;;;;;;11.28;100.00;100360.56;4928637;29;20039;-82
2023/02/17 03:05:03;;;;;;;0.35;0.08;;;;;;;11.28;100.00;100350.00;4948914;28;20413;-81
2023/02/17 03:07:38;;;;;;;0.98;0.00;;;;;;;11.28;100.00;100352.63;4961293;28;20042;-81
2023/02/17 03:10:07;;;;;;;0.82;0.00;;;;;;;11.24;100.00;100340.69;4924770;29;20038;-81
2023/02/17 03:12:36;;;;;;;0.20;0.05;;;;;;;11.27;100.00;100342.19;4956093;28;20141;-81
2023/02/17 03:15:13;;;;;;;1.00;0.00;;;;;;;11.26;100.00;100338.72;4932012;28;20514;-82
2023/02/17 03:17:39;;;;;;;0.03;0.00;;;;;;;11.26;100.00;100348.50;4952606;28;20046;-81
2023/02/17 03:20:07;;;;;;;0.43;0.10;;;;;;;11.26;100.00;100348.50;4938777;28;20047;-81
2023/02/17 03:22:39;;;;;;;0.57;0.10;;;;;;;11.30;100.00;100349.84;4945629;28;20036;-81
2023/02/17 03:25:06;;;;;;;0.10;0.08;;;;;;;11.32;100.00;100349.69;4945880;28;20093;-81
2023/02/17 03:27:32;;;;;;;0.20;0.00;;;;;;;11.30;100.00;100368.34;4926791;28;20046;-81
2023/02/17 03:29:57;;;;;;;0.10;0.10;;;;;;;11.33;100.00;100359.28;4950171;28;20105;-81
2023/02/17 03:32:23;;;;;;;0.17;0.00;;;;;;;11.36;100.00;100373.03;4952643;28;20484;-81
2023/02/17 03:34:49;;;;;;;0.25;0.00;;;;;;;11.38;100.00;100381.69;4944497;28;20159;-81
2023/02/17 03:37:15;;;;;;;0.00;0.00;;;;;;;11.40;100.00;100382.34;4945115;28;20483;-81
2023/02/17 03:39:41;;;;;;;0.85;0.10;;;;;;;11.43;100.00;100396.25;4942689;28;20550;-81
2023/02/17 03:42:07;;;;;;;1.02;0.10;;;;;;;11.44;100.00;100384.66;4945740;28;20043;-81
2023/02/17 03:44:33;;;;;;;0.10;0.00;;;;;;;11.52;100.00;100390.03;4955068;28;20448;-82
2023/02/17 03:46:58;;;;;;;0.70;0.08;;;;;;;11.54;100.00;100383.63;4971577;28;20109;-81
2023/02/17 03:49:25;;;;;;;0.85;0.20;;;;;;;11.54;100.00;100385.44;4928690;29;20094;-81
2023/02/17 03:51:51;;;;;;;0.22;0.15;;;;;;;11.50;100.00;100390.19;4930485;29;20031;-81
2023/02/17 03:54:17;;;;;;;0.10;0.05;;;;;;;11.47;100.00;100373.78;4900323;28;20058;-81
2023/02/17 03:56:42;;;;;;;0.57;0.10;;;;;;;11.44;100.00;100377.56;4929314;28;20030;-81
2023/02/17 03:59:09;;;;;;;0.70;0.05;;;;;;;11.43;100.00;100394.44;4949975;28;20113;-81
2023/02/17 04:01:34;;;;;;;0.13;0.10;;;;;;;11.40;100.00;100395.56;4953452;28;20039;-81
2023/02/17 04:04:00;;;;;;;1.17;0.20;;;;;;;11.38;100.00;100409.94;4939768;28;20437;-81
2023/02/17 04:06:26;;;;;;;1.60;0.10;;;;;;;11.34;100.00;100409.41;4947007;28;20042;-81
2023/02/17 04:08:52;;;;;;;0.30;0.05;;;;;;;11.31;100.00;100420.28;4918178;28;20046;-81
2023/02/17 04:11:17;;;;;;;0.40;0.10;;;;;;;11.31;100.00;100422.13;4936924;28;20031;-81
2023/02/17 04:13:43;;;;;;;0.05;0.00;;;;;;;11.30;100.00;100431.88;4952585;28;20058;-81
2023/02/17 04:16:10;;;;;;;0.88;0.10;;;;;;;11.27;100.00;100417.13;4955670;28;20035;-81
2023/02/17 04:18:36;;;;;;;1.23;0.08;;;;;;;11.23;100.00;100421.03;4948286;28;20031;-81
2023/02/17 04:21:03;;;;;;;0.30;0.10;;;;;;;11.22;100.00;100447.63;4951407;28;20038;-81
2023/02/17 04:23:29;;;;;;;0.20;0.00;;;;;;;11.20;100.00;100454.88;4937792;28;20476;-81
2023/02/17 04:25:55;;;;;;;0.10;0.05;;;;;;;11.16;100.00;100454.38;4936370;29;20043;-77
2023/02/17 04:28:21;;;;;;;0.25;0.00;;;;;;;11.16;100.00;100457.03;4974187;28;20067;-77
2023/02/17 04:30:49;;;;;;;0.65;0.10;;;;;;;11.16;100.00;100459.66;4961202;28;20498;-81
2023/02/17 04:33:15;;;;;;;1.60;0.17;;;;;;;11.14;100.00;100473.03;4948516;28;20034;-82
2023/02/17 04:35:41;;;;;;;3.15;0.98;;;;;;;11.13;100.00;100473.19;4957057;28;20053;-80
2023/02/17 04:38:09;;;;;;;0.10;0.05;;;;;;;11.15;100.00;100482.63;4971234;28;20495;-79
2023/02/17 04:40:35;;;;;;;0.00;0.00;;;;;;;11.16;100.00;100494.06;4962285;28;20049;-81
2023/02/17 04:43:02;;;;;;;0.43;0.30;;;;;;;11.15;100.00;100493.22;4942320;28;20039;-81
2023/02/17 04:45:28;;;;;;;0.00;0.00;;;;;;;11.14;100.00;100499.50;4941533;28;20522;-81
2023/02/17 04:47:54;;;;;;;0.35;0.08;;;;;;;11.18;100.00;100492.06;4937629;28;20043;-81
2023/02/17 04:50:19;;;;;;;1.98;0.10;;;;;;;11.13;100.00;100483.78;4957782;28;20029;-81
2023/02/17 04:52:46;;;;;;;0.20;0.00;;;;;;;11.18;100.00;100496.56;4976141;28;20030;-81
2023/02/17 04:55:12;;;;;;;1.55;0.10;;;;;;;11.13;100.00;100497.00;4943484;28;20042;-81
2023/02/17 04:57:38;;;;;;;0.95;0.00;;;;;;;11.11;100.00;100485.72;4960342;28;20423;-82
2023/02/17 05:00:05;;;;;;;0.85;0.20;;;;;;;11.13;100.00;100497.00;4937759;29;20039;-81
2023/02/17 05:02:31;;;;;;;0.00;0.00;;;;;;;11.13;100.00;100494.34;4934564;28;20403;-81
2023/02/17 05:04:56;;;;;;;0.00;0.00;;;;;;;11.12;100.00;100485.56;4960156;28;20046;-81
2023/02/17 05:07:22;;;;;;;0.00;0.00;;;;;;;11.09;100.00;100483.22;4948316;28;20031;-81
2023/02/17 05:09:48;;;;;;;1.42;0.10;;;;;;;11.08;100.00;100486.84;4964675;28;20037;-82
2023/02/17 05:12:14;;;;;;;2.08;0.00;;;;;;;11.10;100.00;100487.53;4973989;28;20038;-81
2023/02/17 05:14:41;;;;;;;1.00;0.08;;;;;;;11.09;100.00;100491.16;4963107;28;20513;-81
2023/02/17 05:17:06;;;;;;;0.13;0.05;;;;;;;11.11;100.00;100497.13;4954903;28;20097;-81
2023/02/17 05:19:32;;;;;;;0.08;0.05;;;;;;;11.13;100.00;100492.50;4920401;28;20509;-81
2023/02/17 05:21:58;;;;;;;0.25;0.10;;;;;;;11.11;100.00;100501.59;4958653;28;20034;-81
2023/02/17 05:24:24;;;;;;;1.55;0.00;;;;;;;11.12;100.00;100504.09;4921886;28;20031;-81
2023/02/17 05:26:50;;;;;;;0.10;0.10;;;;;;;11.12;100.00;100511.19;4930132;28;20376;-81
2023/02/17 05:29:15;;;;;;;0.70;0.17;;;;;;;11.13;100.00;100507.56;4954055;28;20061;-81
2023/02/17 05:31:41;;;;;;;0.55;0.05;;;;;;;11.15;100.00;100511.72;4950422;28;20041;-82
2023/02/17 05:34:07;;;;;;;0.10;0.10;;;;;;;11.15;100.00;100517.03;4951887;28;20038;-81
2023/02/17 05:36:32;;;;;;;0.10;0.10;;;;;;;11.14;100.00;100512.72;4969381;28;20034;-81
2023/02/17 05:38:58;;;;;;;0.00;0.00;;;;;;;11.15;100.00;100526.75;4966898;28;20407;-81
2023/02/17 05:41:24;;;;;;;2.35;0.00;;;;;;;11.15;100.00;100535.53;4937256;28;20093;-81
2023/02/17 05:43:50;;;;;;;0.63;0.00;;;;;;;11.15;100.00;100530.25;4933374;28;20123;-80
2023/02/17 05:46:15;;;;;;;1.20;0.00;;;;;;;11.15;100.00;100530.25;4953209;28;20035;-81
2023/02/17 05:48:43;;;;;;;0.32;0.00;;;;;;;11.15;100.00;100534.69;4954877;28;20034;-81
2023/02/17 05:51:08;;;;;;;0.55;0.10;;;;;;;11.13;100.00;100534.84;4953747;28;20034;-82
2023/02/17 05:53:34;;;;;;;0.00;0.00;;;;;;;11.15;100.00;100545.28;4967912;28;20034;-81
2023/02/17 05:56:01;;;;;;;0.55;0.10;;;;;;;11.13;100.00;100541.97;4948799;28;20051;-81
2023/02/17 05:58:27;;;;;;;0.00;0.00;;;;;;;11.13;100.00;100540.13;4946254;28;20047;-81
2023/02/17 06:00:52;;;;;;;0.57;0.00;;;;;;;11.12;100.00;100543.78;4936145;28;20061;-81
2023/02/17 06:03:18;;;;;;;0.10;0.00;;;;;;;11.09;100.00;100530.00;4935818;28;20035;-81
2023/02/17 06:05:44;;;;;;;0.00;0.00;;;;;;;11.12;100.00;100549.06;4919848;29;20051;-81
2023/02/17 06:08:10;;;;;;;0.00;0.00;;;;;;;11.14;100.00;100540.97;4935099;29;20042;-81
2023/02/17 06:10:36;;;;;;;1.65;0.20;;;;;;;11.12;100.00;100543.78;4936971;28;20254;-81
2023/02/17 06:13:02;;;;;;;0.15;0.00;;;;;;;11.14;100.00;100539.19;4953502;28;20499;-81
2023/02/17 06:15:29;;;;;;;0.52;0.00;;;;;;;11.15;100.00;100543.47;4950205;28;20031;-81
2023/02/17 06:17:55;;;;;;;0.80;0.05;;;;;;;11.16;100.00;100542.50;4942901;28;20405;-81
2023/02/17 06:20:21;;;;;;;0.17;0.10;;;;;;;11.19;100.00;100546.66;4931023;29;20031;-82
2023/02/17 06:22:47;;;;;;;0.00;0.00;;;;;;;11.20;100.00;100555.41;4951153;28;20114;-81
2023/02/17 06:25:12;;;;;;;0.13;0.00;;;;;;;11.22;100.00;100564.06;4940725;28;20038;-81
2023/02/17 06:27:40;;;;;;;0.00;0.00;;;;;;;11.20;100.00;100566.84;4948124;28;20035;-81
2023/02/17 06:30:07;;;;;;;0.47;0.08;;;;;;;11.23;100.00;100560.41;4935405;28;20078;-81
2023/02/17 06:32:33;;;;;;;0.32;0.10;;;;;;;11.20;100.00;100580.06;4946002;28;20036;-81
2023/02/17 06:34:59;;;;;;;0.52;0.00;;;;;;;11.15;100.00;100577.03;4934711;28;20403;-82
2023/02/17 06:37:25;;;;;;;0.13;0.10;;;;;;;11.16;100.00;100584.00;4942096;28;20062;-82
2023/02/17 06:39:50;;;;;;;1.10;0.20;;;;;;;11.15;100.00;100585.81;4934083;28;20480;-81
2023/02/17 06:42:16;;;;;;;1.95;0.25;;;;;;;11.15;100.00;100590.25;4950997;28;20431;-82
2023/02/17 06:44:42;;;;;;;1.17;0.10;;;;;;;11.11;100.00;100587.09;4960281;28;20098;-82
2023/02/17 06:47:08;;;;;;;1.48;0.20;;;;;;;11.11;100.00;100597.66;4931586;28;20042;-82
2023/02/17 06:49:33;;;;;;;0.38;0.10;;;;;;;11.15;100.00;100601.69;4930246;28;20392;-82
2023/02/17 06:51:59;;;;;;;1.05;0.20;;;;;;;11.15;100.00;100608.78;4947473;28;20031;-81
2023/02/17 06:54:25;;;;;;;1.05;0.22;;;;;;;11.17;100.00;100614.75;4953024;28;20543;-81
2023/02/17 06:56:51;;;;;;;1.65;0.20;;;;;;;11.16;100.00;100618.41;4971989;28;20042;-82
2023/02/17 06:59:16;;;;;;;2.38;0.50;;;;;;;11.15;100.00;100628.13;4935387;28;20042;-81
2023/02/17 07:01:42;;;;;;;2.55;0.50;;;;;;;11.15;100.00;100624.66;4938987;28;20045;-81
2023/02/17 07:04:08;;;;;;;2.15;0.50;;;;;;;11.14;100.00;100634.41;4965690;28;20038;-81
2023/02/17 07:06:34;;;;;;;3.35;0.70;;;;;;;11.13;100.00;100640.66;4918328;28;20070;-81
2023/02/17 07:09:01;;;;;;;6.78;0.65;;;;;;;11.11;100.00;100623.28;4965318;28;20034;-81
2023/02/17 07:11:30;;;;;;;2.15;0.40;;;;;;;11.06;100.00;100622.84;4952301;28;20027;-81
2023/02/17 07:13:56;;;;;;;5.63;0.40;;;;;;;11.06;100.00;100633.44;4937406;28;20053;-81
2023/02/17 07:16:22;;;;;;;4.10;0.40;;;;;;;11.03;100.00;100643.34;4952334;28;20531;-81
2023/02/17 07:18:48;;;;;;;3.17;0.30;;;;;;;11.00;100.00;100646.28;4922272;28;20137;-81
2023/02/17 07:21:13;;;;;;;2.13;0.28;;;;;;;11.00;100.00;100645.44;4967058;28;20027;-81
2023/02/17 07:23:39;;;;;;;2.92;0.40;;;;;;;10.98;100.00;100648.22;4945676;28;20026;-80
2023/02/17 07:26:08;;;;;;;2.15;0.13;;;;;;;10.99;100.00;100654.34;4949773;28;20027;-81
2023/02/17 07:28:35;;;;;;;2.20;0.20;;;;;;;10.99;100.00;100676.34;4952197;28;20041;-81
2023/02/17 07:31:09;;;;;;;1.33;0.28;;;;;;;10.98;100.00;100674.69;4938069;28;20420;-80
2023/02/17 07:33:36;;;;;;;0.70;0.20;;;;;;;10.97;100.00;100682.75;4945595;28;20175;-80
2023/02/17 07:36:06;;;;;;;1.98;0.30;;;;;;;10.98;100.00;100685.25;4933438;28;20035;-82
2023/02/17 07:38:32;;;;;;;0.28;0.10;;;;;;;10.94;100.00;100683.84;4950789;28;20042;-82
2023/02/17 07:41:14;;;;;;;2.38;0.50;;;;;;;10.95;100.00;100690.81;4953390;28;20124;-81
2023/02/17 07:43:40;;;;;;;4.55;0.30;;;;;;;10.91;100.00;100700.00;4950937;28;20100;-82
2023/02/17 07:46:08;;;;;;;4.35;0.38;;;;;;;10.90;100.00;100698.34;4936035;28;20097;-81
2023/02/17 07:48:34;;;;;;;3.55;0.40;;;;;;;10.89;100.00;100709.91;4952189;28;20045;-81
2023/02/17 07:51:12;;;;;;;5.50;0.40;;;;;;;10.92;100.00;100704.34;4968429;28;20019;-82
2023/02/17 07:53:38;;;;;;;2.28;0.30;;;;;;;10.90;100.00;100722.97;4950196;28;20866;-83
2023/02/17 07:56:05;;;;;;;7.72;0.77;;;;;;;10.90;100.00;100730.06;4953880;28;20102;-82
2023/02/17 07:58:33;;;;;;;3.67;0.47;;;;;;;10.90;100.00;100735.38;4917299;28;20069;-82
2023/02/17 08:01:14;;;;;;;1.98;0.60;;;;;;;10.92;100.00;100736.06;4949738;28;20096;-81
2023/02/17 08:03:40;;;;;;;2.75;0.68;;;;;;;10.86;100.00;100732.16;4953774;28;20090;-81
2023/02/17 08:06:14;;;;;;;10.00;1.40;;;;;;;10.87;100.00;100733.84;4949736;28;20427;-80
2023/02/17 08:14:10;;;;;;;6.95;1.08;;;;;;;10.86;100.00;100755.13;4966041;28;20073;-81
2023/02/17 08:16:35;;;;;;;9.02;1.40;;;;;;;10.84;100.00;100749.16;4963008;28;20058;-81
2023/02/17 08:19:01;;;;;;;8.43;1.50;;;;;;;10.87;100.00;100754.16;4929110;28;20043;-80
2023/02/17 08:21:27;;;;;;;12.43;2.38;;;;;;;10.87;100.00;100755.00;4946937;28;20091;-81
2023/02/17 08:23:53;;;;;;;14.27;1.65;;;;;;;10.90;100.00;100764.44;4944511;28;20439;-82
2023/02/17 08:26:20;;;;;;;13.77;2.67;;;;;;;10.87;100.00;100756.78;4948506;28;20089;-81
2023/02/17 08:28:48;;;;;;;16.33;2.30;;;;;;;10.90;100.00;100762.66;4937322;28;20109;-82
2023/02/17 08:31:19;;;;;;;12.98;2.20;;;;;;;10.95;100.00;100758.75;4964752;28;20027;-81
2023/02/17 08:33:45;;;;;;;11.98;2.00;;;;;;;10.94;100.00;100757.91;4915861;28;20047;-81
2023/02/17 08:36:11;;;;;;;12.73;2.15;;;;;;;10.95;100.00;100764.88;4929869;28;20042;-81
2023/02/17 08:38:37;;;;;;;14.82;2.05;;;;;;;10.97;100.00;100770.03;4949009;28;20066;-81
2023/02/17 08:41:15;;;;;;;11.13;1.77;;;;;;;10.99;100.00;100782.13;4945852;28;20034;-81
2023/02/17 08:43:42;;;;;;;14.05;2.40;;;;;;;10.98;100.00;100793.69;4960405;28;20432;-81
2023/02/17 08:46:09;;;;;;;15.65;2.05;;;;;;;10.99;100.00;100797.19;4930472;28;20398;-81
2023/02/17 08:48:36;;;;;;;10.65;2.05;;;;;;;11.01;100.00;100793.41;4963534;28;20043;-81
2023/02/17 08:51:02;;;;;;;8.88;2.08;;;;;;;11.01;100.00;100790.78;4947772;28;20506;-81
2023/02/17 08:53:28;;;;;;;12.48;2.22;;;;;;;11.00;100.00;100804.13;4947639;28;20122;-81
2023/02/17 08:55:54;;;;;;;17.65;2.40;;;;;;;11.03;100.00;100809.16;4950988;28;20046;-81
2023/02/17 08:58:20;;;;;;;10.55;2.20;;;;;;;11.00;100.00;100810.28;4964313;28;20055;-82
2023/02/17 09:00:45;;;;;;;11.65;2.20;;;;;;;11.00;100.00;100804.13;4967447;28;20495;-81
2023/02/17 09:03:11;;;;;;;19.02;2.38;;;;;;;10.96;100.00;100803.56;4950141;28;20370;-81
2023/02/17 09:05:37;;;;;;;14.02;2.63;;;;;;;10.95;100.00;100822.22;4951971;28;20070;-81
2023/02/17 09:08:04;;;;;;;12.27;1.83;;;;;;;10.92;100.00;100834.75;4951606;28;20534;-81
2023/02/17 09:10:30;;;;;;;21.33;2.20;;;;;;;10.95;100.00;100838.09;4936824;28;20038;-81
2023/02/17 09:12:56;;;;;;;14.95;2.60;;;;;;;10.94;100.00;100836.44;4959793;28;20508;-81
2023/02/17 09:15:22;;;;;;;9.68;2.63;;;;;;;10.92;100.00;100828.63;4951167;28;20062;-81
2023/02/17 09:17:47;;;;;;;20.15;2.78;;;;;;;10.93;100.00;100840.88;4950199;28;20127;-81
2023/02/17 09:20:13;;;;;;;23.58;3.10;;;;;;;10.94;100.00;100839.06;4924768;28;20039;-81
2023/02/17 09:22:39;;;;;;;20.48;2.72;;;;;;;10.93;100.00;100848.81;4968151;28;20031;-81
2023/02/17 09:25:05;;;;;;;17.88;3.88;;;;;;;10.94;100.00;100842.53;4952691;28;20039;-81
2023/02/17 09:27:31;;;;;;;19.77;2.53;;;;;;;10.97;100.00;100844.94;4967434;28;20117;-81
2023/02/17 09:29:57;;;;;;;22.27;3.58;;;;;;;10.98;100.00;100851.03;4949321;28;20061;-81
2023/02/17 09:32:23;;;;;;;23.17;3.50;;;;;;;11.00;100.00;100863.19;4944744;28;20472;-81
2023/02/17 09:34:52;;;;;;;22.30;4.13;;;;;;;11.03;100.00;100867.34;4944147;28;20035;-82
2023/02/17 09:37:19;;;;;;;21.80;3.90;;;;;;;11.08;100.00;100877.50;4948687;28;20062;-81
2023/02/17 09:39:46;;;;;;;21.02;4.53;;;;;;;11.14;100.00;100877.81;4935393;28;20039;-81
2023/02/17 09:42:21;;;;;;;24.13;4.57;;;;;;;11.23;100.00;100888.53;4936384;28;20035;-81
2023/02/17 09:44:54;;;;;;;30.37;4.27;;;;;;;11.24;100.00;100887.56;4949546;28;20117;-82
2023/02/17 09:47:33;;;;;;;30.63;4.95;;;;;;;11.24;100.00;100885.75;4949188;28;20034;-81
2023/02/17 09:50:04;;;;;;;21.13;3.90;;;;;;;11.26;100.00;100889.09;4930415;28;20039;-81
2023/02/17 09:52:55;;;;;;;31.58;4.95;;;;;;;11.25;100.00;100892.72;4966375;28;20046;-82
2023/02/17 09:55:31;;;;;;;28.00;5.18;;;;;;;11.27;100.00;100892.59;4959093;28;20039;-81
2023/02/17 09:58:04;;;;;;;27.40;4.47;;;;;;;11.28;100.00;100891.59;4935424;29;20031;-81
2023/02/17 10:00:40;;;;;;;29.25;4.72;;;;;;;11.33;100.00;100904.41;4962831;28;20440;-81
2023/02/17 10:03:29;;;;;;;21.10;4.30;;;;;;;11.34;100.00;100896.34;4943779;28;20035;-82
2023/02/17 10:06:07;;;;;;;24.25;4.65;;;;;;;11.36;100.00;100901.50;4933447;28;20031;-82
2023/02/17 10:08:42;;;;;;;31.30;5.32;;;;;;;11.37;100.00;100901.34;4929034;29;20051;-81
2023/02/17 10:11:17;;;;;;;30.10;5.05;;;;;;;11.42;100.00;100914.16;4950380;28;20161;-81
2023/02/17 10:13:45;;;;;;;30.98;5.72;;;;;;;11.44;100.00;100911.38;4942602;28;20047;-81
2023/02/17 10:16:20;;;;;;;25.15;4.18;;;;;;;11.50;100.00;100921.41;4947598;28;20039;-81
2023/02/17 10:18:51;;;;;;;38.17;4.95;;;;;;;11.52;100.00;100920.31;4945201;28;20034;-81
2023/02/17 10:21:24;;;;;;;31.30;5.00;;;;;;;11.53;100.00;100916.69;4942744;28;20039;-81
2023/02/17 10:23:52;;;;;;;35.33;5.22;;;;;;;11.47;100.00;100917.25;4931874;28;20206;-81
2023/02/17 10:26:53;;;;;;;34.40;4.50;;;;;;;11.50;100.00;100918.75;4936840;28;20126;-81
2023/02/17 10:29:45;;;;;;;35.85;5.20;;;;;;;11.56;100.00;100920.88;4861028;29;20042;-81
2023/02/17 10:32:22;;;;;;;30.60;5.38;;;;;;;11.58;100.00;100931.34;4906995;28;20094;-81
2023/02/17 10:34:47;;;;;;;27.80;4.75;;;;;;;11.50;100.00;100924.06;4945558;28;20040;-82
2023/02/17 10:37:31;;;;;;;30.85;5.03;;;;;;;11.52;100.00;100920.31;4949698;28;20095;-81
2023/02/17 10:39:57;;;;;;;30.17;4.95;;;;;;;11.48;100.00;100921.56;4949433;28;20285;-81
2023/02/17 10:42:32;;;;;;;31.63;5.40;;;;;;;11.56;100.00;100922.69;4948209;28;20039;-82
2023/02/17 10:45:12;;;;;;;33.20;5.60;;;;;;;11.57;100.00;100927.84;4946280;28;20031;-81
2023/02/17 10:47:39;;;;;;;26.70;4.88;;;;;;;11.56;100.00;100930.63;4946627;28;20063;-81
2023/02/17 10:50:12;;;;;;;25.17;5.25;;;;;;;11.56;100.00;100928.81;4949239;28;20082;-81
2023/02/17 10:52:40;;;;;;;30.02;5.25;;;;;;;11.59;100.00;100927.69;4942305;28;20043;-81
2023/02/17 10:55:16;;;;;;;33.38;4.60;;;;;;;11.64;100.00;100936.88;4950917;28;20055;-81
2023/02/17 10:57:43;;;;;;;29.92;5.28;;;;;;;11.72;100.00;100924.78;4948560;28;20037;-81
2023/02/17 11:00:17;;;;;;;26.02;3.63;;;;;;;11.75;100.00;100920.03;4920452;28;20438;-81
2023/02/17 11:02:46;;;;;;;29.65;5.00;;;;;;;11.72;100.00;100925.59;4936242;28;20113;-82
2023/02/17 11:05:28;;;;;;;39.50;6.00;;;;;;;11.67;100.00;100930.50;4945993;28;20185;-82
2023/02/17 11:08:24;;;;;;;28.30;5.82;;;;;;;11.61;100.00;100941.66;4965905;28;20042;-81
2023/02/17 11:10:59;;;;;;;31.40;5.32;;;;;;;11.57;100.00;100956.97;4949390;28;20107;-81
2023/02/17 11:13:31;;;;;;;29.17;5.40;;;;;;;11.58;100.00;100953.34;4947125;28;20063;-82
2023/02/17 11:15:57;;;;;;;24.52;4.75;;;;;;;11.60;100.00;100963.78;4934493;28;20101;-81
2023/02/17 11:18:28;;;;;;;38.05;6.68;;;;;;;11.66;100.00;100966.72;4959913;28;20043;-81
2023/02/17 11:21:05;;;;;;;34.70;5.55;;;;;;;11.76;100.00;100968.53;4948264;28;20031;-81
2023/02/17 11:23:31;;;;;;;28.98;4.90;;;;;;;11.80;100.00;100975.25;4935506;28;20042;-81
2023/02/17 11:26:15;;;;;;;25.42;4.97;;;;;;;11.85;100.00;100973.00;4967513;28;20035;-81
2023/02/17 11:28:40;;;;;;;28.35;5.47;;;;;;;11.79;100.00;100966.47;4945067;28;20042;-81
2023/02/17 11:31:08;;;;;;;27.13;5.18;;;;;;;11.79;100.00;100978.84;4949525;28;20808;-81